Time;durP1;ratioP1;P1;durP2;ratioP2;P2;SDS_P1;SDS_P2;PMS_P1;PMS_P2;Temp;Humidity;BMP_temperature;BMP_pressure;BME280_temperature;BME280_humidity;BME280_pressure;Samples;Min_cycle;Max_cycle;Signal;HPM_P1;HPM_P2
2022/03/11 00:00:56;;;;;;;21.85;14.07;;;7.90;96.70;;;;;;4972960;28;20074;-88
2022/03/11 00:03:25;;;;;;;20.90;14.50;;;7.90;96.70;;;;;;4971896;28;20062;-89
2022/03/11 00:05:53;;;;;;;17.27;13.43;;;7.80;96.70;;;;;;4971371;28;20070;-88
2022/03/11 00:08:22;;;;;;;17.23;13.63;;;7.80;96.70;;;;;;4987583;28;20053;-89
2022/03/11 00:10:50;;;;;;;20.98;14.60;;;7.80;96.70;;;;;;4986919;28;20101;-89
2022/03/11 00:13:20;;;;;;;19.83;14.82;;;7.80;96.70;;;;;;4987775;28;20058;-89
2022/03/11 00:15:48;;;;;;;16.55;12.98;;;7.80;96.70;;;;;;4971360;28;20057;-89
2022/03/11 00:18:17;;;;;;;18.40;13.73;;;7.80;96.70;;;;;;4970655;28;20408;-89
2022/03/11 00:20:46;;;;;;;19.55;12.50;;;7.70;96.70;;;;;;4972015;28;20575;-90
2022/03/11 00:23:14;;;;;;;18.70;11.90;;;7.60;96.70;;;;;;4972421;28;20050;-90
2022/03/11 00:25:42;;;;;;;20.75;12.65;;;7.60;96.70;;;;;;5020024;28;20139;-89
2022/03/11 00:28:11;;;;;;;17.50;12.32;;;7.50;96.70;;;;;;4971457;28;20050;-87
2022/03/11 00:30:41;;;;;;;17.15;12.10;;;7.40;96.70;;;;;;4968972;28;20058;-89
2022/03/11 00:33:09;;;;;;;18.73;13.40;;;7.40;96.70;;;;;;4979680;28;20069;-88
2022/03/11 00:35:40;;;;;;;20.00;13.10;;;7.40;96.70;;;;;;4986077;28;20059;-88
2022/03/11 00:38:09;;;;;;;18.23;13.30;;;7.40;96.70;;;;;;4985672;28;20101;-89
2022/03/11 00:40:37;;;;;;;17.52;13.10;;;7.40;96.70;;;;;;4986292;28;20081;-88
2022/03/11 00:43:07;;;;;;;17.85;13.38;;;7.40;96.70;;;;;;5003038;28;20043;-88
2022/03/11 00:45:35;;;;;;;18.65;13.63;;;7.30;96.70;;;;;;4969934;28;20054;-88
2022/03/11 00:48:05;;;;;;;21.33;14.00;;;7.30;96.70;;;;;;5002949;28;20489;-89
2022/03/11 00:50:33;;;;;;;18.45;12.57;;;7.20;96.70;;;;;;4971869;28;20045;-88
2022/03/11 00:53:06;;;;;;;16.77;12.07;;;7.20;96.70;;;;;;4963662;28;20049;-90
2022/03/11 00:55:36;;;;;;;18.40;12.90;;;7.10;96.70;;;;;;5002562;28;20081;-90
2022/03/11 00:58:05;;;;;;;17.88;13.00;;;7.20;96.70;;;;;;4986315;28;20101;-89
2022/03/11 01:00:34;;;;;;;16.98;12.20;;;7.20;96.70;;;;;;4971805;28;20038;-90
2022/03/11 01:03:04;;;;;;;17.83;11.70;;;7.20;96.70;;;;;;4970138;28;20086;-88
2022/03/11 01:05:33;;;;;;;16.67;12.50;;;7.20;96.70;;;;;;4986358;28;20051;-89
2022/03/11 01:08:04;;;;;;;18.33;12.70;;;7.10;96.70;;;;;;4970069;28;20066;-89
2022/03/11 01:10:32;;;;;;;16.50;11.55;;;7.10;96.70;;;;;;4971842;28;20810;-89
2022/03/11 01:13:01;;;;;;;18.52;12.85;;;7.10;96.70;;;;;;5002084;28;20053;-89
2022/03/11 01:15:30;;;;;;;19.40;12.13;;;7.00;96.70;;;;;;4970250;28;20531;-90
2022/03/11 01:18:00;;;;;;;19.42;13.60;;;7.00;96.70;;;;;;5004583;28;20089;-83
2022/03/11 01:20:31;;;;;;;16.60;12.43;;;7.00;96.70;;;;;;4985647;28;20085;-84
2022/03/11 01:23:00;;;;;;;19.08;12.95;;;6.90;96.70;;;;;;4984753;28;20054;-84
2022/03/11 01:25:28;;;;;;;18.70;12.65;;;6.90;96.70;;;;;;5001313;28;20512;-83
2022/03/11 01:27:57;;;;;;;20.55;13.10;;;6.90;96.70;;;;;;4968407;28;20070;-84
2022/03/11 01:30:25;;;;;;;17.15;12.50;;;6.90;96.70;;;;;;4969762;28;20047;-84
2022/03/11 01:32:53;;;;;;;17.77;12.90;;;6.80;96.70;;;;;;4984120;28;20054;-89
2022/03/11 01:35:23;;;;;;;16.95;11.73;;;6.70;96.70;;;;;;5001797;28;20072;-89
2022/03/11 01:37:52;;;;;;;15.82;12.02;;;6.70;96.70;;;;;;4969486;28;20043;-88
2022/03/11 01:40:21;;;;;;;17.33;11.93;;;6.60;96.70;;;;;;4985401;28;20129;-88
2022/03/11 01:42:49;;;;;;;16.98;12.38;;;6.60;96.70;;;;;;5002466;28;20039;-87
2022/03/11 01:45:17;;;;;;;16.13;11.88;;;6.70;96.70;;;;;;4971031;28;20043;-89
2022/03/11 01:47:46;;;;;;;18.77;12.48;;;6.60;96.70;;;;;;4985446;28;20069;-89
2022/03/11 01:50:14;;;;;;;17.00;11.82;;;6.60;96.70;;;;;;4986569;28;20661;-88
2022/03/11 01:52:42;;;;;;;15.95;11.50;;;6.70;96.70;;;;;;4986709;28;20042;-87
2022/03/11 01:55:13;;;;;;;17.73;11.80;;;6.60;96.70;;;;;;4985179;28;20105;-88
2022/03/11 01:57:43;;;;;;;18.17;11.60;;;6.50;96.70;;;;;;4969721;28;20078;-88
2022/03/11 02:00:13;;;;;;;17.70;12.00;;;6.60;96.70;;;;;;4984952;28;20158;-88
2022/03/11 02:02:42;;;;;;;18.70;11.88;;;6.60;96.70;;;;;;4968741;28;20050;-88
2022/03/11 02:05:11;;;;;;;16.40;11.77;;;6.60;96.70;;;;;;4997992;28;20058;-88
2022/03/11 02:07:40;;;;;;;16.45;11.57;;;6.50;96.70;;;;;;4984895;28;20810;-89
2022/03/11 02:10:09;;;;;;;21.08;11.88;;;6.60;96.70;;;;;;4969022;28;20051;-90
2022/03/11 02:12:39;;;;;;;30.30;13.70;;;6.70;96.70;;;;;;4969704;28;20496;-89
2022/03/11 02:15:09;;;;;;;25.90;13.57;;;6.70;96.70;;;;;;4985371;28;20101;-88
2022/03/11 02:17:37;;;;;;;29.05;13.23;;;6.80;96.70;;;;;;5001944;28;20051;-89
2022/03/11 02:20:07;;;;;;;34.53;15.02;;;6.90;96.70;;;;;;4968467;28;20046;-90
2022/03/11 02:22:38;;;;;;;27.90;13.60;;;6.70;96.70;;;;;;4968497;28;20058;-89
2022/03/11 02:25:09;;;;;;;28.65;13.95;;;6.60;96.70;;;;;;4966475;28;20042;-89
2022/03/11 02:27:42;;;;;;;22.23;12.82;;;6.60;96.70;;;;;;4968926;28;20050;-88
2022/03/11 02:30:15;;;;;;;20.17;12.35;;;6.50;96.70;;;;;;4968836;28;20534;-89
2022/03/11 02:32:44;;;;;;;21.13;12.43;;;6.50;96.70;;;;;;5000669;28;20504;-88
2022/03/11 02:35:14;;;;;;;19.83;12.13;;;6.40;96.70;;;;;;4984589;28;20066;-89
2022/03/11 02:37:42;;;;;;;19.33;11.75;;;6.50;96.70;;;;;;4984914;28;20505;-88
2022/03/11 02:40:12;;;;;;;18.40;10.55;;;6.50;96.70;;;;;;5001204;28;20070;-89
2022/03/11 02:42:40;;;;;;;16.77;11.45;;;6.50;96.70;;;;;;4970290;28;20045;-89
2022/03/11 02:45:09;;;;;;;15.32;9.65;;;6.40;96.70;;;;;;5001315;28;20046;-88
2022/03/11 02:47:37;;;;;;;13.93;9.82;;;6.40;96.70;;;;;;4969743;28;20047;-89
2022/03/11 02:50:06;;;;;;;15.45;11.10;;;6.30;96.70;;;;;;4984871;28;20042;-90
2022/03/11 02:52:34;;;;;;;14.55;10.27;;;6.30;96.70;;;;;;4968896;28;20059;-89
2022/03/11 02:55:03;;;;;;;14.93;9.77;;;6.30;96.70;;;;;;4969502;28;20113;-89
2022/03/11 02:57:33;;;;;;;13.20;10.07;;;6.40;96.70;;;;;;4985068;28;20654;-89
2022/03/11 03:00:03;;;;;;;13.63;10.15;;;6.30;96.70;;;;;;4970689;28;20058;-88
2022/03/11 03:02:31;;;;;;;12.60;9.30;;;6.20;96.70;;;;;;4989088;28;20114;-87
2022/03/11 03:04:59;;;;;;;13.60;9.15;;;6.20;96.70;;;;;;4972581;28;20063;-89
2022/03/11 03:07:27;;;;;;;15.13;10.25;;;6.20;96.70;;;;;;4971197;28;20043;-88
2022/03/11 03:09:55;;;;;;;15.75;10.02;;;6.10;96.70;;;;;;4972278;28;20080;-87
2022/03/11 03:12:23;;;;;;;14.15;9.88;;;6.20;96.70;;;;;;4972923;28;20113;-89
2022/03/11 03:14:54;;;;;;;12.65;9.77;;;6.20;96.70;;;;;;5003569;28;20790;-89
2022/03/11 03:17:23;;;;;;;14.02;10.25;;;6.20;96.70;;;;;;5003898;28;20051;-89
2022/03/11 03:19:51;;;;;;;14.90;10.57;;;6.10;96.70;;;;;;4973639;28;20145;-89
2022/03/11 03:22:19;;;;;;;14.30;10.07;;;6.10;96.70;;;;;;4987946;28;20133;-88
2022/03/11 03:24:48;;;;;;;13.98;10.75;;;6.10;96.70;;;;;;4986310;28;20077;-88
2022/03/11 03:27:16;;;;;;;16.88;11.65;;;6.00;96.70;;;;;;4988310;28;20043;-87
2022/03/11 03:29:44;;;;;;;14.23;10.02;;;6.00;96.70;;;;;;4966928;28;20054;-87
2022/03/11 03:32:14;;;;;;;16.20;10.48;;;5.90;96.70;;;;;;5004251;28;20086;-88
2022/03/11 03:34:42;;;;;;;12.07;9.40;;;5.90;96.70;;;;;;4979570;28;20058;-89
2022/03/11 03:37:11;;;;;;;14.13;10.07;;;5.80;96.70;;;;;;4995285;28;20077;-89
2022/03/11 03:39:40;;;;;;;13.82;10.25;;;5.80;96.70;;;;;;4974897;28;20042;-89
2022/03/11 03:42:09;;;;;;;14.40;10.32;;;5.70;96.70;;;;;;4993351;28;20498;-89
2022/03/11 03:44:37;;;;;;;14.82;10.82;;;5.70;96.70;;;;;;4993098;28;20038;-87
2022/03/11 03:47:05;;;;;;;13.63;10.27;;;5.50;96.70;;;;;;4972760;28;20038;-87
2022/03/11 03:49:35;;;;;;;14.82;10.90;;;5.40;96.70;;;;;;4990958;28;20061;-89
2022/03/11 03:52:11;;;;;;;14.75;10.98;;;5.40;96.70;;;;;;4992142;28;20562;-88
2022/03/11 03:54:40;;;;;;;18.92;10.93;;;5.40;96.70;;;;;;5019203;28;20074;-89
2022/03/11 03:57:08;;;;;;;15.05;11.00;;;5.50;96.70;;;;;;5008219;28;20050;-89
2022/03/11 03:59:39;;;;;;;17.65;12.55;;;5.40;96.70;;;;;;5010385;28;20042;-89
2022/03/11 04:02:07;;;;;;;17.88;12.23;;;5.50;96.70;;;;;;4992716;28;20042;-89
2022/03/11 04:04:37;;;;;;;19.40;13.02;;;5.60;96.70;;;;;;4991493;28;20047;-89
2022/03/11 04:07:05;;;;;;;17.05;11.80;;;5.40;96.70;;;;;;4991698;28;20058;-88
2022/03/11 04:09:34;;;;;;;17.05;12.10;;;5.30;96.70;;;;;;4991760;28;20057;-89
2022/03/11 04:12:02;;;;;;;17.88;11.30;;;5.30;96.70;;;;;;4990751;28;20073;-87
2022/03/11 04:14:33;;;;;;;15.20;10.93;;;5.30;96.70;;;;;;4991038;28;20042;-89
2022/03/11 04:17:02;;;;;;;14.48;10.80;;;5.40;96.70;;;;;;4974653;28;20042;-88
2022/03/11 04:19:30;;;;;;;13.32;9.88;;;5.30;96.70;;;;;;4974812;28;20045;-89
2022/03/11 04:22:00;;;;;;;14.38;10.20;;;5.30;96.70;;;;;;4975094;28;20057;-87
2022/03/11 04:24:28;;;;;;;14.68;10.13;;;5.30;96.70;;;;;;5004469;28;20282;-89
2022/03/11 04:26:57;;;;;;;14.63;10.35;;;5.30;96.70;;;;;;4991097;28;20046;-90
2022/03/11 04:29:26;;;;;;;14.98;10.55;;;5.40;96.70;;;;;;5007483;28;20055;-90
2022/03/11 04:31:55;;;;;;;13.68;9.95;;;5.40;96.70;;;;;;4991128;28;20442;-89
2022/03/11 04:34:23;;;;;;;13.82;9.55;;;5.30;96.70;;;;;;4992278;28;20057;-89
2022/03/11 04:36:51;;;;;;;13.70;9.85;;;5.30;96.70;;;;;;5009364;28;20161;-89
2022/03/11 04:39:21;;;;;;;14.27;10.48;;;5.10;96.70;;;;;;5006052;28;20041;-89
2022/03/11 04:41:49;;;;;;;13.38;9.75;;;5.10;96.70;;;;;;4976725;28;20049;-86
2022/03/11 04:44:18;;;;;;;15.10;10.93;;;5.10;96.70;;;;;;5007311;28;20054;-88
2022/03/11 04:46:46;;;;;;;14.82;10.13;;;5.10;96.70;;;;;;4998710;28;20057;-86
2022/03/11 04:49:15;;;;;;;12.38;9.13;;;5.00;96.70;;;;;;4985683;28;20046;-86
2022/03/11 04:51:43;;;;;;;14.43;10.38;;;5.00;96.70;;;;;;4985992;28;20065;-86
2022/03/11 04:54:11;;;;;;;15.52;10.68;;;5.00;96.70;;;;;;5000687;28;20092;-87
2022/03/11 04:56:41;;;;;;;15.15;10.20;;;5.00;96.70;;;;;;4976016;28;20050;-90
2022/03/11 04:59:09;;;;;;;14.23;9.70;;;5.10;96.70;;;;;;4986169;28;20069;-88
2022/03/11 05:01:37;;;;;;;17.88;10.43;;;5.10;96.70;;;;;;4980800;28;20054;-87
2022/03/11 05:04:05;;;;;;;14.10;10.20;;;5.10;96.70;;;;;;4990187;28;20053;-88
2022/03/11 05:06:33;;;;;;;15.13;10.68;;;5.10;96.70;;;;;;4989794;28;20493;-88
2022/03/11 05:09:02;;;;;;;14.32;10.32;;;5.20;96.70;;;;;;4971480;28;20046;-87
2022/03/11 05:11:30;;;;;;;13.55;9.63;;;5.00;96.70;;;;;;5005771;28;20051;-88
2022/03/11 05:14:00;;;;;;;16.73;10.32;;;4.90;96.70;;;;;;4974351;28;20038;-88
2022/03/11 05:16:28;;;;;;;15.18;10.18;;;4.90;96.70;;;;;;5006446;28;20053;-89
2022/03/11 05:18:56;;;;;;;13.38;10.43;;;5.00;96.70;;;;;;4972575;28;20046;-89
2022/03/11 05:21:24;;;;;;;15.10;10.52;;;5.10;96.70;;;;;;5005482;28;20081;-87
2022/03/11 05:23:53;;;;;;;17.42;10.98;;;5.10;96.70;;;;;;4972776;28;20069;-90
2022/03/11 05:26:28;;;;;;;18.67;11.27;;;5.10;96.70;;;;;;5005172;28;20045;-88
2022/03/11 05:28:59;;;;;;;16.13;10.80;;;5.10;96.70;;;;;;4973485;28;20050;-88
2022/03/11 05:31:28;;;;;;;16.70;10.75;;;5.10;96.70;;;;;;5006311;28;20297;-88
2022/03/11 05:33:56;;;;;;;14.77;11.15;;;5.10;96.70;;;;;;4989850;28;20073;-88
2022/03/11 05:36:25;;;;;;;15.60;10.90;;;5.10;96.70;;;;;;5004955;28;20050;-82
2022/03/11 05:38:53;;;;;;;18.02;11.45;;;5.00;96.70;;;;;;4970399;28;20039;-83
2022/03/11 05:41:21;;;;;;;17.35;11.95;;;5.00;96.70;;;;;;4987709;28;20130;-83
2022/03/11 05:43:49;;;;;;;18.67;11.98;;;5.00;96.70;;;;;;4973570;28;20065;-83
2022/03/11 05:46:19;;;;;;;16.35;11.93;;;4.90;96.70;;;;;;4987158;28;20062;-82
2022/03/11 05:48:49;;;;;;;18.02;11.70;;;4.90;96.70;;;;;;5006997;28;20100;-83
2022/03/11 05:51:17;;;;;;;16.98;11.70;;;4.80;96.70;;;;;;4986946;28;20086;-82
2022/03/11 05:53:46;;;;;;;17.38;11.88;;;4.90;96.70;;;;;;5004558;28;20104;-89
2022/03/11 05:56:14;;;;;;;17.35;11.43;;;5.00;96.70;;;;;;4990416;28;20134;-89
2022/03/11 05:58:42;;;;;;;20.05;12.27;;;5.00;96.70;;;;;;5004572;28;20097;-89
2022/03/11 06:01:10;;;;;;;18.23;11.77;;;5.00;96.70;;;;;;4996246;28;20050;-89
2022/03/11 06:03:41;;;;;;;17.40;11.40;;;5.10;96.70;;;;;;5004919;28;20057;-89
2022/03/11 06:06:09;;;;;;;15.55;12.07;;;5.20;96.70;;;;;;5010322;28;20049;-89
2022/03/11 06:08:37;;;;;;;17.73;12.73;;;5.20;96.70;;;;;;4972537;28;20042;-88
2022/03/11 06:11:06;;;;;;;19.98;12.20;;;5.10;96.70;;;;;;4988864;28;20538;-89
2022/03/11 06:13:34;;;;;;;16.40;11.93;;;5.20;96.70;;;;;;4971909;28;20157;-89
2022/03/11 06:16:02;;;;;;;17.50;11.73;;;5.20;96.70;;;;;;4972314;28;20046;-89
2022/03/11 06:18:31;;;;;;;20.67;11.82;;;5.20;96.70;;;;;;4996871;28;20053;-89
2022/03/11 06:21:01;;;;;;;15.48;11.80;;;5.30;96.70;;;;;;4972228;28;20077;-89
2022/03/11 06:23:31;;;;;;;17.13;12.13;;;5.30;96.70;;;;;;5004985;28;20408;-88
2022/03/11 06:26:00;;;;;;;18.35;12.10;;;5.30;96.70;;;;;;4977165;28;20082;-89
2022/03/11 06:28:28;;;;;;;16.48;11.98;;;5.30;96.70;;;;;;4989418;28;20047;-87
2022/03/11 06:30:56;;;;;;;17.80;13.20;;;5.40;96.70;;;;;;4988942;28;20046;-88
2022/03/11 06:33:31;;;;;;;17.85;12.70;;;5.40;96.70;;;;;;4989000;28;20046;-88
2022/03/11 06:36:00;;;;;;;20.45;13.30;;;5.40;96.70;;;;;;4988892;28;20113;-89
2022/03/11 06:38:28;;;;;;;18.77;13.93;;;5.60;96.70;;;;;;4992342;28;20134;-88
2022/03/11 06:41:04;;;;;;;20.00;13.48;;;5.60;96.70;;;;;;4989092;28;20478;-89
2022/03/11 06:43:33;;;;;;;22.63;13.38;;;5.60;96.70;;;;;;5008636;28;20137;-90
2022/03/11 06:46:01;;;;;;;18.80;13.13;;;5.80;96.70;;;;;;5009147;28;20307;-90
2022/03/11 06:48:30;;;;;;;19.15;13.23;;;5.90;96.70;;;;;;4990832;28;20073;-88
2022/03/11 06:51:04;;;;;;;16.65;13.02;;;5.90;96.70;;;;;;4975675;28;20050;-88
2022/03/11 06:53:33;;;;;;;20.42;13.02;;;5.90;96.70;;;;;;5008279;28;20054;-90
2022/03/11 06:56:01;;;;;;;17.80;12.93;;;6.00;96.70;;;;;;4992042;28;20456;-89
2022/03/11 06:58:29;;;;;;;18.45;12.75;;;6.10;96.70;;;;;;5005958;28;20093;-88
2022/03/11 07:00:57;;;;;;;18.63;12.95;;;6.10;96.70;;;;;;4990742;28;20054;-89
2022/03/11 07:03:26;;;;;;;19.95;13.50;;;6.10;96.70;;;;;;4992881;28;20536;-87
2022/03/11 07:05:54;;;;;;;17.10;12.48;;;6.10;96.70;;;;;;4979776;28;20055;-89
2022/03/11 07:08:24;;;;;;;20.65;13.93;;;6.10;96.70;;;;;;5007665;28;20050;-90
2022/03/11 07:10:53;;;;;;;19.02;13.35;;;6.10;96.70;;;;;;4975490;28;20046;-88
2022/03/11 07:13:21;;;;;;;20.50;13.65;;;6.20;96.70;;;;;;4964580;28;20046;-89
2022/03/11 07:15:49;;;;;;;18.60;13.48;;;6.30;96.70;;;;;;4983370;28;20046;-89
2022/03/11 07:18:18;;;;;;;16.88;12.88;;;6.50;96.70;;;;;;4992735;28;20116;-89
2022/03/11 07:20:47;;;;;;;18.60;13.05;;;6.50;96.70;;;;;;4991273;28;20046;-88
2022/03/11 07:23:33;;;;;;;18.70;13.05;;;6.60;96.70;;;;;;4975327;28;20046;-89
2022/03/11 07:26:01;;;;;;;18.15;13.43;;;6.60;96.70;;;;;;4992872;28;20526;-88
2022/03/11 07:28:29;;;;;;;18.30;13.70;;;6.60;96.70;;;;;;4993723;28;20073;-89
2022/03/11 07:30:59;;;;;;;20.10;12.80;;;6.60;96.70;;;;;;4984893;28;20066;-88
2022/03/11 07:33:27;;;;;;;18.15;12.40;;;6.80;96.70;;;;;;4981838;28;20097;-89
2022/03/11 07:35:56;;;;;;;18.75;11.98;;;6.80;96.70;;;;;;4996864;28;20094;-89
2022/03/11 07:38:30;;;;;;;18.40;13.10;;;6.90;96.70;;;;;;4996096;28;20069;-90
2022/03/11 07:41:01;;;;;;;18.67;12.75;;;7.00;96.70;;;;;;5007935;28;20511;-89
2022/03/11 07:43:29;;;;;;;19.02;13.60;;;7.10;96.70;;;;;;4992210;28;20047;-89
2022/03/11 07:45:57;;;;;;;17.75;12.57;;;7.10;96.70;;;;;;4992254;28;20068;-89
2022/03/11 07:48:26;;;;;;;15.15;11.57;;;7.30;96.70;;;;;;4966304;28;20085;-84
2022/03/11 07:50:54;;;;;;;17.15;12.70;;;7.30;96.70;;;;;;4991413;28;20122;-84
2022/03/11 07:53:22;;;;;;;18.27;12.05;;;7.40;96.70;;;;;;4988559;28;20049;-87
2022/03/11 07:55:50;;;;;;;17.45;11.77;;;7.40;96.70;;;;;;4992494;28;20050;-89
2022/03/11 07:58:21;;;;;;;17.05;12.32;;;7.50;96.70;;;;;;4979105;28;20073;-91
2022/03/11 08:00:49;;;;;;;16.80;11.73;;;7.60;96.70;;;;;;4992082;28;20500;-83
2022/03/11 08:03:21;;;;;;;17.98;12.25;;;7.70;96.70;;;;;;4993424;28;20042;-87
2022/03/11 08:05:50;;;;;;;18.25;12.02;;;7.80;96.70;;;;;;4991813;28;20046;-91
2022/03/11 08:08:18;;;;;;;17.77;12.05;;;7.90;96.70;;;;;;4992093;28;20043;-92
2022/03/11 08:10:47;;;;;;;20.80;12.70;;;8.00;96.70;;;;;;4996320;28;20054;-87
2022/03/11 08:13:35;;;;;;;22.02;12.90;;;8.10;96.70;;;;;;4989013;28;20073;-89
2022/03/11 08:16:03;;;;;;;27.67;18.23;;;8.30;96.70;;;;;;4999671;28;20069;-87
2022/03/11 08:18:32;;;;;;;26.05;17.20;;;8.40;96.70;;;;;;4979502;28;20146;-88
2022/03/11 08:21:01;;;;;;;29.58;16.63;;;8.50;96.70;;;;;;4995435;28;20050;-85
2022/03/11 08:23:30;;;;;;;19.73;12.25;;;8.60;96.70;;;;;;4990544;28;20030;-89
2022/03/11 08:25:59;;;;;;;13.00;10.05;;;8.80;96.70;;;;;;4990745;28;20047;-85
2022/03/11 08:28:27;;;;;;;16.98;11.43;;;8.90;96.70;;;;;;4988549;28;20065;-86
2022/03/11 08:30:57;;;;;;;13.15;10.18;;;9.00;96.70;;;;;;4989023;28;20389;-89
2022/03/11 08:33:30;;;;;;;11.38;8.93;;;9.20;96.70;;;;;;5006320;28;20122;-89
2022/03/11 08:36:18;;;;;;;12.55;9.25;;;9.40;96.70;;;;;;4953350;28;20386;-88
2022/03/11 08:38:46;;;;;;;14.52;9.25;;;9.50;96.70;;;;;;4985744;28;20086;-88
2022/03/11 08:41:16;;;;;;;12.60;8.80;;;9.60;96.70;;;;;;4985375;28;20118;-89
2022/03/11 08:43:49;;;;;;;13.90;8.00;;;9.70;96.70;;;;;;4954211;28;20042;-89
2022/03/11 08:46:19;;;;;;;13.13;7.82;;;9.80;96.70;;;;;;4960436;28;20039;-89
2022/03/11 08:48:47;;;;;;;11.55;8.93;;;9.90;96.70;;;;;;4967523;28;20481;-89
2022/03/11 08:51:16;;;;;;;15.85;9.35;;;10.10;96.70;;;;;;4951375;29;20039;-90
2022/03/11 08:53:44;;;;;;;14.30;10.05;;;10.10;96.70;;;;;;4966590;28;20070;-88
2022/03/11 08:56:15;;;;;;;11.85;8.52;;;10.10;96.70;;;;;;4951257;28;20047;-89
2022/03/11 08:58:45;;;;;;;13.68;9.07;;;10.20;96.70;;;;;;4966965;28;20059;-92
2022/03/11 09:01:18;;;;;;;10.55;6.25;;;10.20;96.70;;;;;;4966909;28;20047;-87
2022/03/11 09:03:46;;;;;;;7.38;4.60;;;10.30;96.70;;;;;;4966939;28;20059;-87
2022/03/11 09:06:15;;;;;;;7.40;5.15;;;10.50;96.70;;;;;;4966201;28;20047;-89
2022/03/11 09:08:46;;;;;;;7.53;5.03;;;10.60;96.70;;;;;;4949844;28;20074;-87
2022/03/11 09:11:15;;;;;;;7.05;5.45;;;10.80;96.70;;;;;;4966651;28;20054;-88
2022/03/11 09:13:49;;;;;;;7.72;5.43;;;10.90;96.70;;;;;;4980036;28;20054;-87
2022/03/11 09:16:19;;;;;;;11.75;6.82;;;10.90;96.70;;;;;;4963564;28;20047;-85
2022/03/11 09:18:47;;;;;;;9.55;6.85;;;11.10;96.70;;;;;;4982761;28;20055;-90
2022/03/11 09:21:16;;;;;;;8.65;6.60;;;11.10;96.70;;;;;;4951851;28;20051;-90
2022/03/11 09:23:47;;;;;;;10.18;6.53;;;11.20;96.70;;;;;;4966761;28;20047;-89
2022/03/11 09:26:15;;;;;;;8.68;5.95;;;11.30;96.70;;;;;;4950969;28;20062;-89
2022/03/11 09:28:43;;;;;;;10.35;6.20;;;11.30;96.70;;;;;;4966835;28;20090;-88
2022/03/11 09:31:12;;;;;;;10.82;7.20;;;11.50;96.70;;;;;;4965590;28;20057;-83
2022/03/11 09:33:47;;;;;;;7.57;4.63;;;11.70;96.70;;;;;;4948466;28;20043;-78
2022/03/11 09:36:25;;;;;;;8.20;5.88;;;11.80;96.70;;;;;;4976930;28;20094;-77
2022/03/11 09:38:54;;;;;;;9.45;6.00;;;11.90;96.70;;;;;;4995149;28;20073;-77
2022/03/11 09:41:24;;;;;;;7.80;5.70;;;12.10;96.70;;;;;;4975825;28;20042;-76
2022/03/11 09:43:54;;;;;;;8.63;5.70;;;12.10;96.70;;;;;;4979492;28;20083;-83
2022/03/11 09:46:25;;;;;;;8.85;6.07;;;12.30;96.70;;;;;;5000378;28;20054;-83
2022/03/11 09:48:57;;;;;;;8.23;5.78;;;12.40;96.70;;;;;;4983749;28;20400;-84
2022/03/11 09:51:32;;;;;;;9.38;5.97;;;12.50;96.70;;;;;;4991235;28;20058;-83
2022/03/11 09:54:01;;;;;;;10.35;6.22;;;12.50;96.70;;;;;;4983817;28;20050;-83
2022/03/11 09:56:29;;;;;;;7.68;6.05;;;12.50;96.70;;;;;;4969049;28;20042;-84
2022/03/11 09:58:57;;;;;;;8.77;6.05;;;12.70;96.70;;;;;;4967814;28;20042;-83
2022/03/11 10:01:26;;;;;;;9.32;5.50;;;12.80;96.70;;;;;;4983554;28;20512;-83
2022/03/11 10:03:56;;;;;;;8.93;5.57;;;12.90;96.70;;;;;;4968891;28;20042;-82
2022/03/11 10:06:38;;;;;;;6.82;5.45;;;13.10;96.70;;;;;;4983190;28;20058;-82
2022/03/11 10:09:12;;;;;;;7.18;5.57;;;13.20;96.70;;;;;;4999015;28;20046;-83
2022/03/11 10:11:41;;;;;;;9.77;6.30;;;13.30;96.70;;;;;;4967678;28;20149;-82
2022/03/11 10:14:09;;;;;;;7.28;5.43;;;13.40;96.70;;;;;;4983704;28;20050;-81
2022/03/11 10:16:38;;;;;;;7.30;5.30;;;13.50;96.70;;;;;;4999373;28;20085;-84
2022/03/11 10:19:10;;;;;;;8.55;5.80;;;13.40;96.70;;;;;;4983886;28;20134;-84
2022/03/11 10:21:40;;;;;;;9.45;5.78;;;13.50;96.70;;;;;;4999789;28;20121;-84
2022/03/11 10:24:10;;;;;;;9.43;6.25;;;13.80;96.70;;;;;;5000054;28;20066;-86
2022/03/11 10:26:44;;;;;;;9.18;6.70;;;13.70;96.70;;;;;;5000733;28;20074;-82
2022/03/11 10:29:14;;;;;;;10.90;6.53;;;13.80;96.70;;;;;;5000711;28;20047;-85
2022/03/11 10:31:46;;;;;;;8.98;6.22;;;13.90;96.70;;;;;;5000659;28;20054;-87
2022/03/11 10:34:22;;;;;;;10.20;6.43;;;13.90;96.70;;;;;;5002568;28;20933;-87
2022/03/11 10:36:53;;;;;;;12.55;6.07;;;13.90;96.70;;;;;;4998167;28;20149;-86
2022/03/11 10:39:25;;;;;;;7.57;5.90;;;14.00;96.70;;;;;;4990962;28;20101;-85
2022/03/11 10:42:15;;;;;;;7.85;5.95;;;14.20;96.10;;;;;;4988077;28;20493;-90
2022/03/11 10:44:56;;;;;;;8.85;5.82;;;14.30;95.80;;;;;;5005452;28;20116;-84
2022/03/11 10:47:26;;;;;;;11.50;5.68;;;14.20;96.20;;;;;;4988489;28;20077;-89
2022/03/11 10:49:58;;;;;;;9.70;6.13;;;14.10;96.00;;;;;;4988337;28;20141;-86
2022/03/11 10:52:31;;;;;;;8.02;5.43;;;14.20;95.90;;;;;;4971381;28;20150;-87
2022/03/11 10:55:01;;;;;;;8.30;6.25;;;14.10;94.60;;;;;;4983164;28;20050;-89
2022/03/11 10:57:35;;;;;;;8.52;5.47;;;14.20;95.40;;;;;;5006725;28;20078;-89
2022/03/11 11:00:20;;;;;;;10.20;6.38;;;14.20;94.60;;;;;;4997054;28;20045;-87
2022/03/11 11:02:50;;;;;;;8.23;5.85;;;14.50;94.30;;;;;;4970227;28;20054;-86
2022/03/11 11:05:21;;;;;;;13.77;6.82;;;14.60;94.10;;;;;;4988331;28;20049;-87
2022/03/11 11:07:49;;;;;;;10.40;6.68;;;14.70;94.50;;;;;;5003970;28;20681;-87
2022/03/11 11:10:19;;;;;;;8.85;6.78;;;14.60;94.20;;;;;;4972250;28;20046;-87
2022/03/11 11:12:49;;;;;;;8.10;5.47;;;14.70;94.20;;;;;;4988096;28;20126;-88
2022/03/11 11:15:18;;;;;;;8.45;5.30;;;14.80;91.40;;;;;;4970982;28;20550;-87
2022/03/11 11:17:47;;;;;;;11.15;5.28;;;15.10;90.90;;;;;;4971175;28;20554;-86
2022/03/11 11:20:22;;;;;;;8.07;5.40;;;15.20;89.80;;;;;;4979849;28;20074;-86
2022/03/11 11:22:56;;;;;;;10.25;6.20;;;15.20;90.50;;;;;;5010897;28;20122;-86
2022/03/11 11:25:24;;;;;;;9.02;5.38;;;15.10;89.90;;;;;;4988359;28;20486;-90
2022/03/11 11:27:57;;;;;;;8.35;5.55;;;15.10;89.60;;;;;;5010676;28;20061;-88
2022/03/11 11:30:25;;;;;;;8.85;5.57;;;15.20;89.50;;;;;;4994070;28;20069;-88
2022/03/11 11:32:55;;;;;;;7.43;6.15;;;15.50;88.90;;;;;;5002839;28;20070;-89
2022/03/11 11:35:30;;;;;;;10.68;5.95;;;15.70;88.70;;;;;;4989924;28;20062;-86
2022/03/11 11:38:00;;;;;;;8.05;5.82;;;15.80;87.80;;;;;;5006588;28;20055;-85
2022/03/11 11:40:33;;;;;;;7.80;5.60;;;15.70;88.90;;;;;;5006921;28;20046;-87
2022/03/11 11:43:27;;;;;;;11.50;5.53;;;15.70;88.50;;;;;;4986014;28;20046;-87
2022/03/11 11:45:58;;;;;;;7.07;4.90;;;15.70;88.40;;;;;;4984219;28;20061;-85
2022/03/11 11:49:04;;;;;;;8.63;5.53;;;15.90;87.90;;;;;;5022914;28;20042;-85
2022/03/11 11:52:04;;;;;;;8.60;5.72;;;15.90;87.70;;;;;;4984955;28;20050;-87
2022/03/11 11:54:37;;;;;;;11.35;6.13;;;15.90;87.80;;;;;;4968118;28;20046;-87
2022/03/11 11:57:07;;;;;;;7.53;5.72;;;15.90;86.80;;;;;;4991258;28;20073;-85
2022/03/11 11:59:38;;;;;;;8.35;5.60;;;15.90;85.80;;;;;;4990450;28;20574;-87
2022/03/11 12:02:26;;;;;;;9.52;5.47;;;15.90;85.10;;;;;;4990568;28;20050;-87
2022/03/11 12:04:54;;;;;;;9.02;4.90;;;15.80;85.90;;;;;;4989735;28;20057;-87
2022/03/11 12:07:44;;;;;;;7.32;5.10;;;15.90;86.00;;;;;;4974960;28;20046;-87
2022/03/11 12:10:26;;;;;;;9.05;5.38;;;15.90;85.40;;;;;;4980464;28;20057;-86
2022/03/11 12:13:00;;;;;;;8.68;5.47;;;16.30;84.50;;;;;;5008144;28;20043;-84
2022/03/11 12:15:34;;;;;;;10.50;5.57;;;16.50;83.80;;;;;;5006148;28;20062;-85
2022/03/11 12:18:27;;;;;;;10.13;6.00;;;16.50;84.50;;;;;;5001128;28;20052;-80
2022/03/11 12:20:56;;;;;;;8.52;5.47;;;16.70;84.70;;;;;;4983001;28;20048;-80
2022/03/11 12:23:31;;;;;;;7.20;5.45;;;16.70;83.80;;;;;;4968899;28;20038;-79
2022/03/11 12:26:08;;;;;;;7.65;5.60;;;16.70;84.50;;;;;;4984067;28;20050;-80
2022/03/11 12:28:39;;;;;;;9.57;5.82;;;16.50;85.00;;;;;;4984826;28;20043;-79
2022/03/11 12:31:21;;;;;;;9.57;6.07;;;16.40;85.20;;;;;;5000170;28;20157;-79
2022/03/11 12:33:49;;;;;;;;;;;16.50;85.90;;;;;;4997293;28;20054;-79
2022/03/11 12:36:20;;;;;;;7.63;5.93;;;16.40;85.60;;;;;;5000472;28;19934;-80
2022/03/11 12:38:52;;;;;;;9.38;6.50;;;16.60;85.20;;;;;;4985286;28;20121;-79
2022/03/11 12:41:24;;;;;;;8.77;6.13;;;16.80;84.40;;;;;;4999991;28;20050;-80
2022/03/11 12:43:52;;;;;;;9.38;5.45;;;16.80;84.50;;;;;;4986124;28;20047;-80
2022/03/11 12:46:20;;;;;;;8.80;5.53;;;16.90;84.20;;;;;;4984734;28;20376;-82
2022/03/11 12:48:49;;;;;;;8.00;5.75;;;17.10;83.60;;;;;;4987481;28;20065;-82
2022/03/11 12:51:19;;;;;;;6.68;4.68;;;17.20;82.40;;;;;;4986480;28;20046;-80
2022/03/11 12:53:50;;;;;;;6.90;5.35;;;17.20;82.10;;;;;;4987298;28;20511;-81
2022/03/11 12:56:19;;;;;;;7.20;5.55;;;17.20;81.80;;;;;;4971367;28;20672;-89